メインページ
METAR-TAF:

METAR-TAF

空港 :

Adirondack Regional Airport

Saranac Lake, ニューヨーク, アメリカ合衆国

緯度: 44-23-35N, 経度: 074-12-10W, 海抜: 507m

現時点の気象観測

当レポートは52分前の16:51(UTC)に作成
変向風 6kt
気温 26°C
湿度 61%
気圧 1009 hPa
視程: 16.1km
高度3200ftの雲は散在している
高度4000ftの千切れ雲あり
高度6000ftの千切れ雲あり

METAR: KSLK 211651Z AUTO VRB06KT 10SM SCT032 BKN040 BKN060 26/18 A2980 RMK AO2 SLP078 T02610183

時間: 13:43 (17:43 UTC)

予報

当レポートは23分前の17:20(UTC)に作成
予報は21日の 18時(UTC)から 22日の 18時(UTC)まで有効
西の風 8kt
視程: 10km
高度5000ftの千切れ雲あり
21日の 2100時(UTC)から
西の風 8kt
視程: 10km
高度8000ftの雲は散在している
近辺でにわか雨
22日の 0000時(UTC)から
西の風 3kt
視程: 10km
高度8000ftの雲はほとんどない
22日の 0400時(UTC)から
の風 kt
視程: 0.4km
高度200ftの
22日の 1300時(UTC)から
の風 kt
視程: 10km
高度12000ftの千切れ雲あり

TAF: KSLK 211720Z 2118/2218 28008KT P6SM BKN050 FM212100 28008KT P6SM VCSH SCT080 FM220000 28003KT P6SM FEW080 FM220400 00000KT 1/4SM FG VV002 FM221300 00000KT P6SM BKN120

4,000以上の空港の気象観測と天気予報(METAR報とTAF報)

利用可能な観測所は地図上に黄色い丸と赤い丸で示す。

丸の上にカーソルを重ねると観測所名を参照できる。

次にクリックすると気象観測と天気予報を参照できる。

マップの切り替え:黒色「×」印の緑ボタンをクリックして拡大、「-」印の緑ボタンをクリックして縮小、緑色の三角印をクリックして隣りの地図に切り替え


METAR-TAF: